This is the latest recevied packets stored in our database for station/object EDDB/SXF. If no packets are shown the sender has not sent any packets the latest 24 hours.

If you compare the raw packets with similar data from other websites it may differ (especially the path), the reason is that we are not collecting packets from the same APRS-IS servers. Each APRS-IS server performes duplicate filtering, and which packet that is considered to be a duplicate may differ depending on which APRS-IS server you receive your data from.

1566292305: DB0TGO-15>APRX29,TCPIP*,qAC,T2MAZURY:;EDDB/SXF *091140z5223.18N/01331.12E^METAR: 200850Z VRB03KT CAVOK 23/09 Q1021 NOSIG \ AFIS: 132.65 MHz ATIS: 125.9 MHz GND: 129.500 MHz TWR: 120.025 MHz

1566293282: DB0TGO-15>APRX29,TCPIP*,qAC,T2MAZURY:;EDDB/SXF *092800z5223.18N/01331.12E^METAR: 200920Z 21004KT 110V260 CAVOK 24/10 Q1021 NOSIG \ AFIS: 132.65 MHz ATIS: 125.9 MHz GND: 129.500 MHz TWR: 120.025 MHz

1566294220: DB0TGO-15>APRX29,TCPIP*,qAC,T2MAZURY:;EDDB/SXF *094338z5223.18N/01331.12E^METAR: 200920Z 21004KT 110V260 CAVOK 24/10 Q1021 NOSIG \ AFIS: 132.65 MHz ATIS: 125.9 MHz GND: 129.500 MHz TWR: 120.025 MHz

1566295342: DB0TGO-15>APRX29,TCPIP*,qAC,T2MAZURY:;EDDB/SXF *100220z5223.18N/01331.12E^METAR: 200950Z 11003KT 040V200 CAVOK 25/10 Q1021 NOSIG \ AFIS: 132.65 MHz ATIS: 125.9 MHz GND: 129.500 MHz TWR: 120.025 MHz

1566296362: DB0TGO-15>APRX29,TCPIP*,qAC,T2MAZURY:;EDDB/SXF *101920z5223.18N/01331.12E^METAR: 200950Z 11003KT 040V200 CAVOK 25/10 Q1021 NOSIG \ AFIS: 132.65 MHz ATIS: 125.9 MHz GND: 129.500 MHz TWR: 120.025 MHz

1566297271: DB0TGO-15>APRX29,TCPIP*,qAC,T2MAZURY:;EDDB/SXF *103429z5223.18N/01331.12E^METAR: 201020Z VRB02KT CAVOK 24/10 Q1021 NOSIG \ AFIS: 132.65 MHz ATIS: 125.9 MHz GND: 129.500 MHz TWR: 120.025 MHz

1566298207: DB0TGO-15>APRX29,TCPIP*,qAC,T2MAZURY:;EDDB/SXF *105005z5223.18N/01331.12E^METAR: 201020Z VRB02KT CAVOK 24/10 Q1021 NOSIG \ AFIS: 132.65 MHz ATIS: 125.9 MHz GND: 129.500 MHz TWR: 120.025 MHz

1566299176: DB0TGO-15>APRX29,TCPIP*,qAC,T2MAZURY:;EDDB/SXF *110614z5223.18N/01331.12E^METAR: 201050Z 06003KT 330V110 CAVOK 25/09 Q1021 NOSIG \ AFIS: 132.65 MHz ATIS: 125.9 MHz GND: 129.500 MHz TWR: 120.025 MHz

1566300172: DB0TGO-15>APRX29,TCPIP*,qAC,T2MAZURY:;EDDB/SXF *112250z5223.18N/01331.12E^METAR: 201050Z 06003KT 330V110 CAVOK 25/09 Q1021 NOSIG \ AFIS: 132.65 MHz ATIS: 125.9 MHz GND: 129.500 MHz TWR: 120.025 MHz

1566301203: DB0TGO-15>APRX29,TCPIP*,qAC,T2MAZURY:;EDDB/SXF *114002z5223.18N/01331.12E^METAR: 201120Z VRB04KT CAVOK 25/09 Q1021 NOSIG \ AFIS: 132.65 MHz ATIS: 125.9 MHz GND: 129.500 MHz TWR: 120.025 MHz

Initial position
Current position
Ruler
PHG

© 2015-2019 Per Qvarforth SM4WJF
All Rights Reserved

In this tab we show all APRS packets of any packet type that has been added to the map.

In this tab we show APRS packets of type position that has been added to the map (note that any station may send a position packet).

In this tab we show all APRS packets of type object or item that has been added to the map.

In this tab we show APRS packets of type weather that has been added to the map (note that any station may send a weather packet, not only weather stations).

In this tab we show APRS packets of type direction finding, telemetry, message, query and status that has been added to the map.

Select date and time to show map data for (enter time for your locale time zone). The regular time length select box can still be used to select how old data that should be shown (relative to selected date and time).

*Note that the heatmap will still based on data from the latest hour (not the selected date and time).

Date and time:

reset

APRS Direct


Current time is:


reset

Station filter


reset
Loading Loading
LocatingLocating
Searching Searching